San Sebastian, Spain

7:50 PM CEST on October 25, 2014 (GMT +0200)
IGIPUZKO4 | Change Station
CLOSE
Current Station
Personal Weather Station
Location: Irun, Pais Vasco
Elevation: 114 ft
Nearby Weather Stations

Elev 114 ft 43.33 °N, 1.79 °W | Updated 7 seconds ago

Partly Cloudy
Partly Cloudy
63.9 °F
Feels Like 63.9 °F
N
0.0
Wind Variable Wind from North
Gusts 2.0 mph

Today
High -- | Low -- °F
--% Chance of Precip.
Yesterday
High -- | Low -- °F
Precip. -- in
8:33 AM 7:08 PM
Waxing Crescent, 4% visible
Pressure 30.18 in
Visibility 6.2 miles
Clouds Few 1000 ft
Dew Point 60 °F
Humidity 86%
Rainfall 0.00 in
Snow Depth Not available.
UV 0.0 out of 12
Pollen Not available.
Air Quality Not available.
Flu Activity Not available.
METAR LESO 251730Z VRB01KT 9999 FEW010 19/18 Q1022

More Conditions Fewer Conditions

Pressure 30.18 in
Visibility 6.2 miles
Clouds Few 1000 ft
Dew Point 60 °F
Humidity 86%
Rainfall 0.00 in
Snow Depth Not available.
UV 0.0 out of 12
Pollen Not available.
Air Quality Not available.
Flu Activity Not available.
METAR LESO 251730Z VRB01KT 9999 FEW010 19/18 Q1022

More Conditions Fewer Conditions

10-Day Weather Forecast

Almanac

Astronomy

Oct. 25, 2014 Rise Set
Actual Time 8:33 AM CEST 7:08 PM CEST
Civil Twilight 8:03 AM CEST 7:37 PM CEST
Nautical Twilight 7:30 AM CEST 8:11 PM CEST
Astronomical Twilight 6:57 AM CEST 8:44 PM CEST
Moon 9:59 AM CEST 8:18 PM CEST
Length of Visible Light 11h 34m
Length of Day
10h 35m
Tomorrow will be 2m 44s shorter.
Waxing Crescent, 4% of the Moon is Illuminated
Today
Waxing Crescent
Oct 30
First Quarter
Nov 6
Full
Nov 14
Last Quarter
Nov 22
New

Today's Extremes

Country Highs Country Lows

Community

WunderPhotos

Upload Photos

1,764,919 photos uploaded!

Nearby

Snow Depth

Not available.

Earthquake Activity

City Distance Mag. Time & Date
No recent earthquake activity has been reported nearby.
Minimum magnitude displayed is 2.5.

Coastal Water Temperatures

Place Temperature
No Stations Reporting

Nearby Weather Stations